Time;durP1;ratioP1;P1;durP2;ratioP2;P2;SDS_P1;SDS_P2;PMS_P1;PMS_P2;Temp;Humidity;BMP_temperature;BMP_pressure;BME280_temperature;BME280_humidity;BME280_pressure;Samples;Min_cycle;Max_cycle;Signal;HPM_P1;HPM_P2
2021/10/24 00:01:49;;;;;;;15.98;9.43;;;;;;;9.46;74.57;100998.31;5073224;28;20095;-61
2021/10/24 00:04:33;;;;;;;13.40;9.48;;;;;;;9.45;74.25;100993.97;5071929;28;20098;-61
2021/10/24 00:07:17;;;;;;;10.80;8.20;;;;;;;9.44;74.40;100989.63;5073190;28;20518;-61
2021/10/24 00:10:02;;;;;;;10.65;8.45;;;;;;;9.44;74.42;100997.38;5073336;28;20051;-63
2021/10/24 00:12:46;;;;;;;13.35;9.10;;;;;;;9.41;74.60;100999.84;5072505;28;20058;-63
2021/10/24 00:15:30;;;;;;;11.93;8.73;;;;;;;9.42;74.23;100999.88;5072011;28;20090;-63
2021/10/24 00:18:17;;;;;;;;;;;;;;;9.38;74.04;100995.44;5073299;28;20052;-63
2021/10/24 00:21:01;;;;;;;9.63;8.30;;;;;;;9.37;74.59;100985.94;5072046;28;19935;-62
2021/10/24 00:23:45;;;;;;;12.38;7.70;;;;;;;9.35;74.42;100987.56;5073079;28;20043;-63
2021/10/24 00:26:29;;;;;;;11.75;8.30;;;;;;;9.36;74.34;100993.63;5072793;28;20469;-62
2021/10/24 00:29:13;;;;;;;10.38;7.30;;;;;;;9.34;74.08;100988.41;5073123;28;20058;-63
2021/10/24 00:31:57;;;;;;;11.05;7.18;;;;;;;9.33;74.22;100986.63;5072042;28;20056;-62
2021/10/24 00:34:40;;;;;;;9.68;7.25;;;;;;;9.33;74.36;100986.63;5071987;28;20536;-62
2021/10/24 00:37:24;;;;;;;9.68;7.40;;;;;;;9.31;74.26;100985.69;5072172;28;20098;-62
2021/10/24 00:40:09;;;;;;;8.95;7.10;;;;;;;9.31;73.99;100985.69;5073023;28;20044;-63
2021/10/24 00:42:54;;;;;;;;;;;;;;;9.29;74.21;100982.16;5073116;28;20095;-62
2021/10/24 00:45:38;;;;;;;10.80;7.18;;;;;;;9.28;74.29;100975.22;5072417;28;20279;-63
2021/10/24 00:48:22;;;;;;;;;;;;;;;9.26;73.93;100982.94;5072829;28;20073;-62
2021/10/24 00:51:07;;;;;;;15.65;7.32;;;;;;;9.26;74.29;100974.31;5074496;28;19923;-62
2021/10/24 00:53:52;;;;;;;9.85;7.10;;;;;;;9.26;74.17;100982.94;5075437;28;20522;-63
2021/10/24 00:56:38;;;;;;;;;;;;;;;9.24;74.10;100973.38;5077098;28;20395;-62
2021/10/24 00:59:23;;;;;;;8.70;6.75;;;;;;;9.25;74.31;100967.38;5076765;28;19943;-63
2021/10/24 01:02:07;;;;;;;12.32;7.20;;;;;;;9.23;74.21;100967.31;5060944;28;20063;-63
2021/10/24 01:04:51;;;;;;;15.60;7.15;;;;;;;9.24;74.24;100973.38;5076612;28;20043;-63
2021/10/24 01:07:38;;;;;;;;;;;;;;;9.21;73.80;100974.13;5075329;28;20083;-63
2021/10/24 01:10:21;;;;;;;10.82;6.88;;;;;;;9.21;74.06;100963.78;5075632;28;19924;-62
2021/10/24 01:13:05;;;;;;;8.50;6.10;;;;;;;9.21;74.12;100958.59;5076298;28;20178;-63
2021/10/24 01:15:49;;;;;;;11.45;6.90;;;;;;;9.20;74.12;100954.25;5075943;28;20056;-62
2021/10/24 01:18:33;;;;;;;9.43;6.75;;;;;;;9.20;73.98;100955.97;5076081;28;20039;-63
2021/10/24 01:21:18;;;;;;;11.35;6.80;;;;;;;9.18;73.71;100957.63;5075870;28;20052;-62
2021/10/24 01:24:03;;;;;;;9.50;6.00;;;;;;;9.17;74.08;100953.28;5074941;28;20047;-62
2021/10/24 01:26:47;;;;;;;;;;;;;;;9.13;73.55;100950.56;5076023;28;20083;-62
2021/10/24 01:29:31;;;;;;;13.35;7.03;;;;;;;9.14;74.00;100935.94;5075815;28;19924;-63
2021/10/24 01:32:20;;;;;;;11.75;6.93;;;;;;;9.14;73.90;100947.16;5075706;28;20129;-62
2021/10/24 01:35:06;;;;;;;11.07;6.97;;;;;;;9.13;74.06;100945.41;5074842;28;20060;-63
2021/10/24 01:37:50;;;;;;;12.45;6.65;;;;;;;9.13;73.84;100935.06;5075364;28;20094;-63
2021/10/24 01:40:35;;;;;;;10.05;6.13;;;;;;;9.11;73.71;100933.25;5074607;28;20477;-62
2021/10/24 01:43:20;;;;;;;7.97;6.68;;;;;;;9.10;73.87;100923.72;5075722;28;20464;-62
2021/10/24 01:46:05;;;;;;;11.38;6.65;;;;;;;9.09;73.61;100922.88;5074883;28;20048;-62
2021/10/24 01:48:50;;;;;;;8.88;6.50;;;;;;;9.07;73.68;100923.63;5074159;28;20046;-62
2021/10/24 01:51:34;;;;;;;9.93;5.97;;;;;;;9.06;73.68;100911.50;5073965;28;20059;-62
2021/10/24 01:54:18;;;;;;;10.40;6.63;;;;;;;9.06;73.81;100903.75;5075318;28;20048;-63
2021/10/24 01:57:02;;;;;;;9.75;6.13;;;;;;;9.05;73.57;100908.06;5075289;28;20110;-63
2021/10/24 01:59:46;;;;;;;10.85;6.47;;;;;;;9.04;73.57;100893.34;5074136;28;20071;-63
2021/10/24 02:02:30;;;;;;;9.05;6.45;;;;;;;9.04;73.47;100898.53;5073970;28;20110;-63
2021/10/24 02:05:14;;;;;;;10.27;5.70;;;;;;;9.03;73.70;100893.31;5075075;28;20102;-63
2021/10/24 02:07:59;;;;;;;11.05;7.47;;;;;;;9.02;73.14;100884.66;5074641;28;20141;-62
2021/10/24 02:10:44;;;;;;;12.30;6.90;;;;;;;9.02;73.40;100889.84;5075261;28;20388;-63
2021/10/24 02:13:29;;;;;;;7.38;6.30;;;;;;;9.00;73.45;100886.31;5074097;28;20471;-63
2021/10/24 02:16:13;;;;;;;8.40;6.00;;;;;;;9.01;73.43;100888.06;5074800;28;20067;-62
2021/10/24 02:18:57;;;;;;;9.35;7.00;;;;;;;8.99;73.50;100882.88;5075270;28;20113;-62
2021/10/24 02:21:41;;;;;;;12.15;7.75;;;;;;;8.99;73.38;100881.97;5074066;28;20051;-63
2021/10/24 02:24:25;;;;;;;11.43;7.15;;;;;;;8.97;72.89;100878.44;5075103;28;20071;-63
2021/10/24 02:27:09;;;;;;;10.80;6.75;;;;;;;8.98;73.36;100875.03;5074963;28;20233;-62
2021/10/24 02:29:56;;;;;;;8.60;7.20;;;;;;;8.98;73.63;100877.63;5073715;28;20206;-62
2021/10/24 02:32:41;;;;;;;9.20;6.78;;;;;;;8.97;73.13;100868.09;5074838;28;20055;-62
2021/10/24 02:35:26;;;;;;;9.73;6.95;;;;;;;8.95;73.33;100867.19;5073617;28;20565;-63
2021/10/24 02:38:09;;;;;;;11.40;6.80;;;;;;;8.96;73.17;100861.16;5074881;28;20445;-62
2021/10/24 02:40:53;;;;;;;14.55;7.13;;;;;;;8.93;73.08;100859.34;5074674;28;20411;-62
2021/10/24 02:43:37;;;;;;;12.23;8.35;;;;;;;8.91;73.21;100850.66;5074482;28;20091;-63
2021/10/24 02:46:21;;;;;;;14.75;7.95;;;;;;;8.89;72.92;100843.69;5074372;28;20428;-63
2021/10/24 02:49:05;;;;;;;10.50;6.85;;;;;;;8.87;73.01;100843.66;5074248;28;20466;-62
2021/10/24 02:51:50;;;;;;;12.65;7.60;;;;;;;8.88;73.19;100839.34;5074625;28;20055;-63
2021/10/24 02:54:34;;;;;;;16.95;8.98;;;;;;;8.89;73.08;100841.09;5074369;28;20115;-63
2021/10/24 02:57:18;;;;;;;10.80;7.78;;;;;;;8.91;73.06;100839.47;5074280;28;20151;-63
2021/10/24 03:02:22;;;;;;;12.98;8.50;;;;;;;8.90;72.99;100833.38;5083581;27;2013879;-63
2021/10/24 03:05:08;;;;;;;13.23;9.35;;;;;;;8.93;73.20;100833.50;5132463;28;20053;-63
2021/10/24 03:07:53;;;;;;;14.10;8.75;;;;;;;8.91;73.02;100831.69;5116442;28;20432;-63
2021/10/24 03:10:36;;;;;;;12.65;9.15;;;;;;;8.92;73.03;100838.63;5131705;28;20199;-63
2021/10/24 03:13:21;;;;;;;17.30;10.27;;;;;;;8.92;73.00;100828.28;5131512;28;20526;-63
2021/10/24 03:16:04;;;;;;;15.57;10.25;;;;;;;8.92;72.91;100825.72;5116432;28;20054;-63
2021/10/24 03:18:48;;;;;;;13.30;9.43;;;;;;;8.91;72.94;100829.13;5131935;28;20082;-63
2021/10/24 03:21:32;;;;;;;14.32;10.32;;;;;;;8.88;72.71;100829.00;5116554;28;20093;-63
2021/10/24 03:24:18;;;;;;;16.95;9.65;;;;;;;8.87;72.94;100822.97;5131274;28;20146;-63
2021/10/24 03:27:02;;;;;;;14.15;9.60;;;;;;;8.88;72.39;100818.66;5131717;28;20517;-63
2021/10/24 03:29:47;;;;;;;14.75;9.43;;;;;;;8.87;72.53;100817.78;5115646;28;20047;-63
2021/10/24 03:32:31;;;;;;;13.65;10.15;;;;;;;8.85;72.93;100819.44;5131104;28;20058;-63
2021/10/24 03:35:14;;;;;;;14.57;9.60;;;;;;;8.85;72.60;100816.84;5131562;28;20082;-63
2021/10/24 03:37:59;;;;;;;19.98;10.77;;;;;;;8.83;72.67;100814.19;5130983;28;20074;-63
2021/10/24 03:40:43;;;;;;;13.85;9.98;;;;;;;8.84;72.72;100818.53;5131027;28;20089;-63
2021/10/24 03:43:28;;;;;;;17.27;9.82;;;;;;;8.82;72.51;100812.44;5130815;28;20053;-63
2021/10/24 03:46:12;;;;;;;14.85;9.27;;;;;;;8.82;72.63;100817.59;5115398;28;20054;-63
2021/10/24 03:48:56;;;;;;;16.33;9.52;;;;;;;8.81;72.42;100812.41;5130894;28;20050;-62
2021/10/24 03:51:41;;;;;;;15.85;10.75;;;;;;;8.79;72.44;100808.88;5115603;28;20162;-62
2021/10/24 03:54:25;;;;;;;13.93;8.85;;;;;;;8.78;72.54;100805.44;5115822;28;20415;-62
2021/10/24 03:57:09;;;;;;;;;;;;;;;8.76;72.29;100799.31;5116490;28;20096;-62
2021/10/24 03:59:53;;;;;;;14.35;7.32;;;;;;;8.75;72.70;100805.31;5130557;28;19918;-62
2021/10/24 04:02:54;;;;;;;;;;;;;;;8.74;72.28;100800.97;5130968;28;20089;-63
2021/10/24 04:05:38;;;;;;;11.70;7.35;;;;;;;8.74;72.45;100800.06;5130295;28;20382;-63
2021/10/24 04:08:22;;;;;;;;;;;;;;;8.73;72.36;100801.78;5131045;28;20054;-62
2021/10/24 04:11:06;;;;;;;9.02;6.07;;;;;;;8.73;72.40;100796.63;5130817;28;20294;-63
2021/10/24 04:13:50;;;;;;;8.50;7.15;;;;;;;8.74;72.58;100795.78;5116813;28;20414;-63
2021/10/24 04:16:35;;;;;;;12.55;5.95;;;;;;;8.74;72.44;100794.91;5101777;28;20047;-62
2021/10/24 04:19:19;;;;;;;;;;;;;;;8.73;72.20;100793.13;5101622;28;20623;-63
2021/10/24 04:22:03;;;;;;;8.30;6.22;;;;;;;8.73;72.21;100791.44;5116696;28;20289;-62
2021/10/24 04:24:48;;;;;;;10.05;5.85;;;;;;;8.73;72.19;100791.44;5101767;28;20043;-62
2021/10/24 04:27:32;;;;;;;;;;;;;;;8.71;72.19;100787.94;5101985;28;20099;-63
2021/10/24 04:30:16;;;;;;;10.98;6.78;;;;;;;8.72;72.11;100786.25;5116412;28;19922;-62
2021/10/24 04:33:00;;;;;;;10.13;6.07;;;;;;;8.72;72.29;100784.53;5101232;28;20049;-62
2021/10/24 04:35:44;;;;;;;13.55;5.63;;;;;;;8.71;72.28;100787.94;5116746;28;20050;-62
2021/10/24 04:38:29;;;;;;;9.15;5.05;;;;;;;8.71;72.16;100781.91;5115971;28;20406;-63
2021/10/24 04:41:13;;;;;;;10.30;5.28;;;;;;;8.71;72.16;100787.94;5116410;28;20062;-62
2021/10/24 04:43:57;;;;;;;8.85;5.00;;;;;;;8.70;72.30;100783.59;5116395;28;20093;-62
2021/10/24 04:46:44;;;;;;;9.63;5.68;;;;;;;8.71;72.06;100776.72;5115875;28;20055;-62
2021/10/24 04:49:29;;;;;;;10.48;5.70;;;;;;;8.72;72.12;100781.94;5116078;28;20058;-62
2021/10/24 04:52:13;;;;;;;9.98;5.25;;;;;;;8.72;71.82;100775.91;5116328;28;20058;-62
2021/10/24 04:54:58;;;;;;;9.57;5.85;;;;;;;8.73;72.08;100772.47;5100715;28;20094;-63
2021/10/24 04:57:42;;;;;;;4.82;4.00;;;;;;;8.73;71.93;100772.47;5100580;28;20084;-63
2021/10/24 05:00:27;;;;;;;8.00;4.35;;;;;;;8.72;72.31;100762.97;5100578;28;20046;-63
2021/10/24 05:03:10;;;;;;;;;;;;;;;8.70;71.97;100760.31;5100700;28;20096;-62
2021/10/24 05:05:55;;;;;;;7.47;4.45;;;;;;;8.69;72.28;100758.56;5115366;28;20007;-63
2021/10/24 05:08:39;;;;;;;8.15;4.85;;;;;;;8.69;72.07;100766.31;5116109;28;20063;-63
2021/10/24 05:11:23;;;;;;;10.60;4.45;;;;;;;8.69;72.28;100761.16;5100375;28;20200;-62
2021/10/24 05:14:13;;;;;;;11.05;4.78;;;;;;;8.67;71.91;100752.44;5115979;28;20600;-62
2021/10/24 05:17:00;;;;;;;6.10;4.95;;;;;;;8.66;71.88;100742.94;5100359;28;20460;-62
2021/10/24 05:19:44;;;;;;;9.35;4.93;;;;;;;8.67;71.92;100757.63;5100631;28;20122;-62
2021/10/24 05:22:29;;;;;;;6.57;4.93;;;;;;;8.63;72.06;100748.03;5099952;28;20039;-63
2021/10/24 05:25:12;;;;;;;;;;;;;;;8.63;71.58;100755.78;5099665;28;20054;-62
2021/10/24 05:27:58;;;;;;;8.25;4.70;;;;;;;8.62;72.02;100748.84;5100307;28;19922;-62
2021/10/24 05:30:42;;;;;;;9.80;4.25;;;;;;;8.62;71.82;100754.03;5115435;28;20050;-62
2021/10/24 05:33:26;;;;;;;5.32;4.38;;;;;;;8.62;72.15;100746.28;5114882;28;20096;-62
2021/10/24 05:36:10;;;;;;;6.22;3.90;;;;;;;8.61;71.87;100740.19;5100041;28;20464;-62
2021/10/24 05:38:54;;;;;;;;;;;;;;;8.60;71.41;100741.03;5115802;28;20049;-62
2021/10/24 05:41:38;;;;;;;12.10;4.63;;;;;;;8.60;71.66;100740.16;5099826;28;20389;-62
2021/10/24 05:44:22;;;;;;;8.88;4.65;;;;;;;8.59;71.69;100738.41;5099792;28;20073;-62
2021/10/24 05:47:06;;;;;;;5.78;4.40;;;;;;;8.58;71.40;100734.06;5114984;28;20046;-63
2021/10/24 05:49:50;;;;;;;5.50;4.25;;;;;;;8.59;71.53;100733.22;5099913;28;20046;-63
2021/10/24 05:52:34;;;;;;;;;;;;;;;8.57;71.45;100725.41;5099953;28;20042;-63
2021/10/24 05:55:18;;;;;;;6.78;4.97;;;;;;;8.57;71.87;100724.53;5114916;28;20392;-63
2021/10/24 05:58:02;;;;;;;;;;;;;;;8.56;71.31;100715.03;5099763;28;20072;-62
2021/10/24 06:00:47;;;;;;;6.28;4.07;;;;;;;8.56;71.33;100717.63;5114783;28;19923;-62
2021/10/24 06:03:31;;;;;;;5.15;4.38;;;;;;;8.56;71.58;100717.63;5115120;28;20042;-62
2021/10/24 06:06:15;;;;;;;10.50;5.25;;;;;;;8.56;71.67;100715.03;5115102;28;20461;-63
2021/10/24 06:09:01;;;;;;;5.78;4.65;;;;;;;8.55;71.49;100708.09;5099570;28;20093;-63
2021/10/24 06:11:47;;;;;;;9.35;5.70;;;;;;;8.56;71.18;100720.19;5114971;28;20395;-62
2021/10/24 06:14:31;;;;;;;7.72;4.47;;;;;;;8.56;71.25;100718.50;5114867;28;20203;-63
2021/10/24 06:17:15;;;;;;;;;;;;;;;8.53;71.35;100710.66;5115049;28;20050;-63
2021/10/24 06:19:59;;;;;;;7.32;4.55;;;;;;;8.52;71.65;100720.09;5099024;28;19964;-63
2021/10/24 06:22:44;;;;;;;7.15;4.78;;;;;;;8.52;71.47;100712.34;5099027;28;20077;-62
2021/10/24 06:25:28;;;;;;;;;;;;;;;8.51;71.24;100709.72;5114858;28;20479;-63
2021/10/24 06:28:15;;;;;;;6.63;4.63;;;;;;;8.51;71.43;100713.16;5099255;28;19950;-62
2021/10/24 06:30:59;;;;;;;10.63;5.22;;;;;;;8.52;71.36;100711.47;5098762;28;20050;-63
2021/10/24 06:33:44;;;;;;;8.90;4.97;;;;;;;8.50;71.37;100703.66;5098621;28;20516;-62
2021/10/24 06:36:29;;;;;;;8.68;4.28;;;;;;;8.51;71.39;100707.13;5114153;28;20077;-62
2021/10/24 06:39:13;;;;;;;8.45;5.00;;;;;;;8.50;71.33;100706.22;5173399;27;20179;-63
2021/10/24 06:41:57;;;;;;;7.95;4.47;;;;;;;8.49;71.17;100699.31;5157846;27;20042;-61
2021/10/24 06:44:41;;;;;;;8.45;4.55;;;;;;;8.49;71.31;100701.88;5173759;27;20045;-61
2021/10/24 06:47:25;;;;;;;;;;;;;;;8.48;70.92;100707.91;5158028;27;20053;-61
2021/10/24 06:50:11;;;;;;;6.97;4.45;;;;;;;8.47;71.03;100706.13;5157291;27;20388;-61
2021/10/24 06:52:57;;;;;;;6.50;4.75;;;;;;;8.48;70.84;100700.16;5157951;27;20087;-61
2021/10/24 06:55:42;;;;;;;6.35;4.45;;;;;;;8.47;71.17;100703.53;5157560;27;20094;-63
2021/10/24 06:58:26;;;;;;;5.63;4.00;;;;;;;8.47;71.10;100695.78;5172752;27;20054;-61
2021/10/24 07:01:09;;;;;;;5.63;4.32;;;;;;;8.49;71.31;100701.03;5157687;27;20151;-63
2021/10/24 07:03:53;;;;;;;11.77;5.07;;;;;;;8.47;70.91;100697.47;5172949;27;20044;-63
2021/10/24 07:06:38;;;;;;;7.18;4.82;;;;;;;8.47;71.27;100698.38;5157352;27;20065;-63
2021/10/24 07:09:22;;;;;;;7.55;4.57;;;;;;;8.48;71.24;100704.44;5157313;27;20081;-61
2021/10/24 07:12:06;;;;;;;10.68;4.65;;;;;;;8.46;70.90;100700.88;5172382;27;20057;-61
2021/10/24 07:14:51;;;;;;;5.78;3.65;;;;;;;8.46;70.87;100711.22;5157365;27;20103;-61
2021/10/24 07:17:35;;;;;;;8.57;4.25;;;;;;;8.46;71.08;100712.09;5157042;27;20048;-61
2021/10/24 07:20:19;;;;;;;;;;;;;;;8.44;70.58;100711.16;5157868;27;20103;-61
2021/10/24 07:23:03;;;;;;;8.32;4.53;;;;;;;8.43;70.69;100713.69;5172583;27;19918;-61
2021/10/24 07:25:47;;;;;;;8.32;5.35;;;;;;;8.42;70.91;100714.50;5156641;27;20098;-61
2021/10/24 07:28:31;;;;;;;6.13;4.15;;;;;;;8.41;71.24;100710.19;5172642;27;20448;-63
2021/10/24 07:31:15;;;;;;;4.63;4.07;;;;;;;8.41;70.74;100723.09;5172129;27;20145;-63
2021/10/24 07:33:59;;;;;;;5.95;4.25;;;;;;;8.39;70.92;100717.88;5172080;27;20134;-63
2021/10/24 07:36:43;;;;;;;6.97;4.53;;;;;;;8.41;70.66;100710.19;5156634;27;20512;-63
2021/10/24 07:39:27;;;;;;;6.20;4.38;;;;;;;8.41;70.85;100707.59;5172660;27;20117;-62
2021/10/24 07:42:12;;;;;;;;;;;;;;;8.37;70.22;100706.59;5172607;27;20099;-62
2021/10/24 07:44:57;;;;;;;9.20;4.40;;;;;;;8.35;70.46;100703.97;5171682;27;20052;-61
2021/10/24 07:47:41;;;;;;;6.55;4.18;;;;;;;8.36;70.61;100718.66;5156560;27;20182;-63
2021/10/24 07:50:28;;;;;;;8.23;4.68;;;;;;;8.35;70.70;100710.81;5159214;27;20041;-63
2021/10/24 07:53:13;;;;;;;6.03;3.58;;;;;;;8.35;70.40;100713.41;5158366;27;20050;-63
2021/10/24 07:56:00;;;;;;;5.75;4.30;;;;;;;8.35;70.57;100716.00;5142739;27;20099;-63
2021/10/24 07:58:44;;;;;;;8.15;3.92;;;;;;;8.35;70.32;100703.97;5142279;27;20038;-63
2021/10/24 08:01:28;;;;;;;8.48;3.95;;;;;;;8.34;70.38;100709.06;5141834;27;20045;-63
2021/10/24 08:04:12;;;;;;;7.10;4.38;;;;;;;8.35;70.53;100696.22;5142618;27;20139;-63
2021/10/24 08:06:57;;;;;;;5.70;3.80;;;;;;;8.35;70.66;100696.22;5157997;27;20054;-62
2021/10/24 08:09:43;;;;;;;7.35;4.53;;;;;;;8.37;70.45;100696.25;5142275;27;20058;-63
2021/10/24 08:12:29;;;;;;;4.47;3.72;;;;;;;8.36;70.43;100689.34;5142379;27;20184;-61
2021/10/24 08:15:13;;;;;;;9.68;4.57;;;;;;;8.39;70.41;100694.63;5142479;27;20149;-61
2021/10/24 08:17:57;;;;;;;;;;;;;;;8.37;70.26;100688.50;5157755;27;20091;-61
2021/10/24 08:20:44;;;;;;;9.45;5.05;;;;;;;8.40;70.64;100692.94;5157395;27;20014;-61
2021/10/24 08:23:28;;;;;;;6.72;4.22;;;;;;;8.41;70.45;100692.97;5157788;27;20045;-61
2021/10/24 08:26:12;;;;;;;6.85;4.45;;;;;;;8.43;70.47;100686.16;5157384;27;20186;-64
2021/10/24 08:29:00;;;;;;;;;;;;;;;8.44;70.31;100682.75;5157631;27;20049;-63
2021/10/24 08:31:50;;;;;;;8.07;4.57;;;;;;;8.44;70.33;100677.59;5142028;27;19922;-63
2021/10/24 08:34:34;;;;;;;7.18;4.10;;;;;;;8.45;70.74;100675.88;5141945;27;20046;-61
2021/10/24 08:37:19;;;;;;;5.70;4.50;;;;;;;8.46;70.02;100681.09;5156962;27;20074;-63
2021/10/24 08:40:06;;;;;;;7.00;4.75;;;;;;;8.48;70.53;100683.75;5141598;27;20050;-62
2021/10/24 08:42:58;;;;;;;5.30;4.03;;;;;;;8.51;70.49;100684.75;5141299;27;20096;-63
2021/10/24 08:45:46;;;;;;;8.18;5.30;;;;;;;8.53;70.38;100677.06;5141805;27;20191;-61
2021/10/24 08:48:34;;;;;;;9.27;5.43;;;;;;;8.58;70.50;100679.78;5141719;27;20053;-61
2021/10/24 08:51:28;;;;;;;5.07;3.60;;;;;;;8.59;70.34;100673.81;5156992;27;20054;-61
2021/10/24 08:54:13;;;;;;;4.72;4.03;;;;;;;8.62;70.54;100673.91;5141747;27;20046;-61
2021/10/24 08:56:57;;;;;;;7.05;4.22;;;;;;;8.64;70.65;100669.69;5156736;27;20397;-61
2021/10/24 08:59:41;;;;;;;5.43;4.32;;;;;;;8.65;70.48;100661.97;5156767;27;20042;-61
2021/10/24 09:02:45;;;;;;;7.65;4.53;;;;;;;8.69;70.64;100660.34;5155869;27;20073;-64
2021/10/24 09:05:32;;;;;;;8.60;4.18;;;;;;;8.70;70.36;100654.38;5156765;27;20053;-63
2021/10/24 09:08:19;;;;;;;7.28;4.15;;;;;;;8.73;70.68;100651.00;5141334;27;20054;-63
2021/10/24 09:11:04;;;;;;;9.13;4.03;;;;;;;8.78;70.56;100654.63;5140991;27;20630;-63
2021/10/24 09:13:48;;;;;;;8.23;4.20;;;;;;;8.79;70.35;100649.53;5156893;27;20049;-64
2021/10/24 09:16:50;;;;;;;7.47;4.13;;;;;;;8.82;70.29;100640.97;5141063;27;20459;-63
2021/10/24 09:19:40;;;;;;;7.40;3.70;;;;;;;8.84;70.13;100641.91;5156519;27;20053;-64
2021/10/24 09:22:31;;;;;;;7.13;4.13;;;;;;;8.86;70.32;100635.09;5156344;27;20077;-63
2021/10/24 09:25:17;;;;;;;5.25;4.05;;;;;;;8.91;70.11;100632.66;5155796;27;20061;-63
2021/10/24 09:28:03;;;;;;;7.32;4.40;;;;;;;8.95;70.55;100634.50;5140895;27;20151;-63
2021/10/24 09:30:57;;;;;;;8.02;3.67;;;;;;;8.97;70.26;100628.53;5156207;27;20063;-64
2021/10/24 09:33:45;;;;;;;7.13;4.65;;;;;;;9.02;70.45;100630.41;5156206;27;20045;-63
2021/10/24 09:36:29;;;;;;;6.63;4.13;;;;;;;9.02;70.21;100625.25;5155904;27;20049;-63
2021/10/24 09:39:13;;;;;;;7.55;4.97;;;;;;;9.05;70.29;100626.19;5156098;27;20401;-63
2021/10/24 09:42:19;;;;;;;5.95;3.75;;;;;;;9.09;70.15;100622.00;5155748;27;20455;-63
2021/10/24 09:45:13;;;;;;;6.10;4.32;;;;;;;9.10;69.94;100627.22;5140616;27;20087;-63
2021/10/24 09:48:06;;;;;;;6.93;4.47;;;;;;;9.14;70.24;100628.19;5156208;27;20056;-63
2021/10/24 09:50:53;;;;;;;17.70;5.38;;;;;;;9.14;70.19;100626.47;5155826;27;20447;-63
2021/10/24 09:53:39;;;;;;;6.68;4.22;;;;;;;9.17;70.35;100624.81;5140433;27;20099;-63
2021/10/24 09:56:27;;;;;;;9.82;4.40;;;;;;;9.19;70.15;100623.16;5140108;27;20446;-63
2021/10/24 09:59:12;;;;;;;9.45;4.40;;;;;;;9.18;69.90;100627.47;5140146;27;20462;-63
2021/10/24 10:01:57;;;;;;;9.00;4.45;;;;;;;9.21;69.99;100614.63;5140270;27;20125;-63
2021/10/24 10:04:41;;;;;;;6.47;5.20;;;;;;;9.25;70.14;100620.78;5139800;27;20524;-63
2021/10/24 10:07:27;;;;;;;4.32;3.50;;;;;;;9.26;70.16;100623.41;5140198;27;20053;-63
2021/10/24 10:10:14;;;;;;;7.85;4.78;;;;;;;9.27;70.10;100624.25;5155083;27;20057;-64
2021/10/24 10:13:05;;;;;;;7.30;4.50;;;;;;;9.29;69.82;100625.19;5139433;27;20420;-63
2021/10/24 10:15:51;;;;;;;8.68;4.00;;;;;;;9.31;69.95;100622.66;5155251;27;20111;-63
2021/10/24 10:19:11;;;;;;;6.82;4.70;;;;;;;9.35;70.13;100619.31;5139968;27;20042;-63
2021/10/24 10:21:55;;;;;;;7.07;4.22;;;;;;;9.37;69.84;100623.72;5099652;27;20095;-63
2021/10/24 10:24:39;;;;;;;9.98;4.28;;;;;;;9.40;69.85;100618.66;5139573;27;20130;-63
2021/10/24 10:27:34;;;;;;;11.55;4.35;;;;;;;9.42;70.00;100616.97;5139935;27;20146;-63
2021/10/24 10:30:40;;;;;;;8.20;4.18;;;;;;;9.42;69.87;100614.38;5139377;27;20122;-63
2021/10/24 10:33:32;;;;;;;5.65;4.30;;;;;;;9.42;69.69;100611.78;5139423;27;20413;-63
2021/10/24 10:36:18;;;;;;;6.55;4.25;;;;;;;9.47;69.88;100616.22;5154684;27;20049;-63
2021/10/24 10:39:34;;;;;;;6.72;4.30;;;;;;;9.48;69.80;100618.00;5139533;27;20061;-63
2021/10/24 10:42:45;;;;;;;11.32;4.15;;;;;;;9.50;69.84;100608.56;5139785;27;20092;-63
2021/10/24 10:45:35;;;;;;;5.97;4.00;;;;;;;9.52;70.03;100612.09;5129077;27;20496;-63
2021/10/24 10:48:33;;;;;;;9.73;4.57;;;;;;;9.55;69.96;100617.34;5154937;27;20469;-63
2021/10/24 10:51:25;;;;;;;6.95;4.45;;;;;;;9.58;70.05;100625.19;5139748;27;20138;-63
2021/10/24 10:54:13;;;;;;;10.50;5.05;;;;;;;9.61;69.89;100612.34;5154548;27;20598;-63
2021/10/24 10:56:58;;;;;;;6.50;4.43;;;;;;;9.62;69.64;100606.34;5139118;27;20054;-63
2021/10/24 10:59:42;;;;;;;6.07;4.13;;;;;;;9.66;69.67;100607.28;5139463;27;20050;-63
2021/10/24 11:02:28;;;;;;;6.88;4.43;;;;;;;9.66;69.77;100609.88;5155053;27;20061;-63
2021/10/24 11:05:43;;;;;;;6.90;4.43;;;;;;;9.67;69.73;100601.28;5139074;27;20424;-63
2021/10/24 11:08:48;;;;;;;6.38;4.18;;;;;;;9.67;69.38;100603.88;5139548;27;20409;-62
2021/10/24 11:14:31;;;;;;;6.82;4.65;;;;;;;9.69;69.94;100597.91;5154747;27;20053;-63
2021/10/24 11:17:36;;;;;;;5.53;4.82;;;;;;;9.69;69.96;100594.44;5139402;27;20122;-63
2021/10/24 11:20:37;;;;;;;8.60;4.22;;;;;;;9.70;69.72;100588.44;5154398;27;20096;-63
2021/10/24 11:23:23;;;;;;;4.88;3.63;;;;;;;9.71;70.16;100580.72;5139467;27;20114;-63
2021/10/24 11:26:07;;;;;;;7.10;3.97;;;;;;;9.73;70.07;100585.94;5158525;27;20168;-63
2021/10/24 11:28:57;;;;;;;5.80;4.07;;;;;;;9.73;69.81;100581.63;5158478;27;20050;-63
2021/10/24 11:31:42;;;;;;;8.20;3.70;;;;;;;9.74;69.75;100585.97;5158274;27;20433;-63
2021/10/24 11:34:35;;;;;;;6.10;4.40;;;;;;;9.76;69.80;100573.09;5142894;27;20046;-63
2021/10/24 11:37:33;;;;;;;6.10;3.90;;;;;;;9.80;69.81;100584.41;5142693;27;20111;-63
2021/10/24 11:40:22;;;;;;;5.65;4.28;;;;;;;9.83;69.62;100575.00;5142828;27;20176;-62
2021/10/24 11:43:15;;;;;;;6.13;3.90;;;;;;;9.85;69.70;100569.88;5142461;27;20187;-63
2021/10/24 11:46:03;;;;;;;7.30;3.95;;;;;;;9.87;69.68;100561.31;5143151;27;20103;-62
2021/10/24 11:48:54;;;;;;;10.82;4.72;;;;;;;9.88;69.68;100559.59;5142954;27;20057;-63
2021/10/24 11:51:38;;;;;;;5.43;4.10;;;;;;;9.89;69.87;100558.75;5142814;27;20049;-63
2021/10/24 11:54:22;;;;;;;7.40;4.35;;;;;;;9.90;69.72;100552.72;5158120;27;20119;-62
2021/10/24 11:57:28;;;;;;;;;;;;;;;9.90;69.75;100551.03;5142485;27;20041;-62
2021/10/24 12:00:39;;;;;;;4.63;3.60;;;;;;;9.92;69.59;100545.88;5158156;27;20071;-63
2021/10/24 12:03:28;;;;;;;6.20;3.50;;;;;;;9.96;69.66;100542.56;5157613;27;20049;-63
2021/10/24 12:06:18;;;;;;;8.35;4.28;;;;;;;10.00;69.54;100551.28;5157406;27;20046;-63
2021/10/24 12:09:05;;;;;;;6.15;4.32;;;;;;;10.02;69.48;100539.25;5142440;27;20098;-63
2021/10/24 12:11:49;;;;;;;7.13;4.38;;;;;;;10.04;69.42;100543.63;5157689;27;20165;-63
2021/10/24 12:14:46;;;;;;;4.25;3.47;;;;;;;10.07;69.42;100542.84;5158054;27;20127;-63
2021/10/24 12:17:36;;;;;;;5.55;3.22;;;;;;;10.09;69.26;100542.88;5142295;27;20393;-63
2021/10/24 12:20:31;;;;;;;5.40;3.22;;;;;;;10.11;69.26;100536.00;5142308;27;20073;-63
2021/10/24 12:23:16;;;;;;;5.32;3.22;;;;;;;10.12;69.21;100536.03;5142120;27;20088;-63
2021/10/24 12:26:04;;;;;;;4.72;3.13;;;;;;;10.13;69.54;100532.63;5141828;27;20045;-63
2021/10/24 12:28:49;;;;;;;8.77;4.38;;;;;;;10.16;69.51;100524.06;5141670;27;20061;-63
2021/10/24 12:31:34;;;;;;;6.82;3.42;;;;;;;10.17;69.59;100525.81;5141600;27;20054;-62
2021/10/24 12:34:18;;;;;;;;;;;;;;;10.16;69.40;100530.13;5142196;27;20520;-62
2021/10/24 12:37:02;;;;;;;4.32;3.40;;;;;;;10.17;69.47;100531.88;5156779;27;20434;-63
2021/10/24 12:39:46;;;;;;;;;;;;;;;10.17;69.20;100531.00;5142538;27;20472;-63
2021/10/24 12:42:30;;;;;;;5.13;3.53;;;;;;;10.17;69.21;100524.09;5156928;27;19961;-63
2021/10/24 12:45:17;;;;;;;8.88;4.85;;;;;;;10.19;69.34;100518.97;5157525;27;20401;-63
2021/10/24 12:48:01;;;;;;;6.03;3.30;;;;;;;10.20;69.09;100511.22;5140924;27;20048;-62
2021/10/24 12:50:46;;;;;;;5.82;3.05;;;;;;;10.21;69.14;100502.63;5156772;27;20065;-63
2021/10/24 12:53:42;;;;;;;6.57;3.97;;;;;;;10.24;69.35;100506.13;5157399;27;20110;-63
2021/10/24 12:56:28;;;;;;;8.13;3.35;;;;;;;10.25;69.00;100503.56;5141544;27;20508;-63
2021/10/24 12:59:12;;;;;;;6.57;3.15;;;;;;;10.26;69.10;100502.72;5141173;27;20060;-63
2021/10/24 13:01:57;;;;;;;6.97;3.58;;;;;;;10.28;69.06;100494.97;5156450;27;20045;-62
2021/10/24 13:04:43;;;;;;;8.60;3.28;;;;;;;10.29;69.07;100489.84;5156747;27;20142;-63
2021/10/24 13:07:27;;;;;;;4.38;3.50;;;;;;;10.30;69.02;100489.03;5140910;27;20068;-63
2021/10/24 13:10:11;;;;;;;4.55;3.35;;;;;;;10.30;69.30;100483.84;5156423;27;20050;-63
2021/10/24 13:12:55;;;;;;;5.50;4.03;;;;;;;10.32;68.92;100483.88;5156585;27;20042;-63